Time;durP1;ratioP1;P1;durP2;ratioP2;P2;SDS_P1;SDS_P2;PMS_P1;PMS_P2;Temp;Humidity;BMP_temperature;BMP_pressure;BME280_temperature;BME280_humidity;BME280_pressure;Samples;Min_cycle;Max_cycle;Signal;HPM_P1;HPM_P2
2022/01/03 00:02:21;;;;;;;21.05;11.30;;;;;;;6.00;99.29;98657.56;4485509;31;20124;-75
2022/01/03 00:04:49;;;;;;;21.62;10.32;;;;;;;5.96;99.45;98655.28;4485866;31;20119;-75
2022/01/03 00:07:17;;;;;;;20.88;10.38;;;;;;;6.03;99.21;98652.16;4485425;32;20069;-75
2022/01/03 00:09:44;;;;;;;19.77;10.50;;;;;;;5.98;98.95;98659.47;4484297;32;20401;-75
2022/01/03 00:12:11;;;;;;;22.35;10.50;;;;;;;6.03;98.50;98662.56;4485372;31;20460;-75
2022/01/03 00:14:40;;;;;;;18.80;10.70;;;;;;;6.06;98.00;98660.66;4485252;31;20153;-75
2022/01/03 00:17:07;;;;;;;18.55;9.65;;;;;;;6.05;97.68;98665.03;4485439;31;20118;-75
2022/01/03 00:19:35;;;;;;;13.70;8.05;;;;;;;6.03;96.57;98657.34;4485296;31;20359;-76
2022/01/03 00:22:06;;;;;;;14.90;7.12;;;;;;;6.21;93.75;98656.97;4485358;31;20114;-75
2022/01/03 00:24:36;;;;;;;7.72;4.50;;;;;;;6.52;89.98;98652.91;4485604;31;20463;-75
2022/01/03 00:27:05;;;;;;;8.32;4.12;;;;;;;7.08;85.45;98648.75;4485540;31;20132;-75
2022/01/03 00:29:42;;;;;;;9.25;4.87;;;;;;;7.75;80.49;98649.63;4485252;31;20243;-75
2022/01/03 00:32:13;;;;;;;7.47;4.82;;;;;;;8.09;78.62;98645.16;4485411;31;20107;-75
2022/01/03 00:34:41;;;;;;;11.20;4.85;;;;;;;8.32;76.89;98645.88;4484237;32;20092;-75
2022/01/03 00:37:09;;;;;;;8.38;4.70;;;;;;;8.43;76.41;98652.00;4485279;31;20076;-75
2022/01/03 00:39:37;;;;;;;8.88;4.87;;;;;;;8.41;76.03;98654.75;4485237;31;20100;-75
2022/01/03 00:42:04;;;;;;;9.65;5.12;;;;;;;8.41;76.36;98643.47;4485271;31;20096;-75
2022/01/03 00:44:32;;;;;;;8.02;5.03;;;;;;;8.23;77.45;98651.84;4485142;31;20115;-75
2022/01/03 00:47:00;;;;;;;17.85;10.35;;;;;;;8.12;77.65;98660.56;4485282;31;20121;-75
2022/01/03 00:49:29;;;;;;;30.20;14.87;;;;;;;7.83;79.83;98675.94;4485090;31;20115;-75
2022/01/03 00:51:56;;;;;;;65.03;15.55;;;;;;;6.91;83.80;98673.47;4485353;31;20119;-76
2022/01/03 00:54:23;;;;;;;27.67;15.23;;;;;;;6.18;88.52;98665.81;4485210;31;20158;-75
2022/01/03 00:56:54;;;;;;;18.95;10.55;;;;;;;5.65;92.09;98665.28;4485509;31;20521;-75
2022/01/03 00:59:32;;;;;;;18.98;9.38;;;;;;;5.58;94.27;98674.44;4484062;32;20088;-75
2022/01/03 01:02:01;;;;;;;18.25;8.68;;;;;;;5.85;92.44;98674.25;4500023;31;20591;-75
2022/01/03 01:04:29;;;;;;;18.05;9.70;;;;;;;5.91;91.83;98673.81;4501063;31;20087;-75
2022/01/03 01:06:57;;;;;;;19.98;10.02;;;;;;;5.72;90.99;98676.06;4501229;31;20148;-75
2022/01/03 01:09:26;;;;;;;19.17;9.30;;;;;;;5.31;92.24;98675.41;4500716;31;20089;-75
2022/01/03 01:11:56;;;;;;;17.92;9.55;;;;;;;5.35;92.54;98666.47;4500862;31;20156;-76
2022/01/03 01:14:25;;;;;;;17.80;8.50;;;;;;;5.31;92.60;98660.69;4501006;31;20103;-75
2022/01/03 01:16:53;;;;;;;16.45;8.80;;;;;;;5.41;94.22;98660.84;4501211;31;20088;-75
2022/01/03 01:19:22;;;;;;;18.05;9.50;;;;;;;5.53;94.06;98664.38;4500622;31;20096;-75
2022/01/03 01:21:51;;;;;;;15.45;8.00;;;;;;;5.64;93.81;98661.84;4499943;31;20134;-75
2022/01/03 01:24:21;;;;;;;15.95;6.90;;;;;;;5.92;91.56;98653.84;4500790;31;20108;-75
2022/01/03 01:29:39;;;;;;;6.03;3.90;;;;;;;7.04;82.45;98647.31;4500756;31;20150;-75
2022/01/03 01:32:08;;;;;;;8.13;4.47;;;;;;;7.66;78.12;98639.94;4501025;31;20168;-75
2022/01/03 01:34:40;;;;;;;7.82;3.72;;;;;;;7.94;76.54;98626.34;4499524;31;20505;-75
2022/01/03 01:37:08;;;;;;;8.32;3.83;;;;;;;8.28;74.38;98627.97;4500848;31;20099;-75
2022/01/03 01:39:35;;;;;;;9.63;3.92;;;;;;;8.69;72.12;98626.34;4499162;31;20103;-75
2022/01/03 01:42:05;;;;;;;8.20;4.10;;;;;;;8.85;71.33;98626.72;4499983;31;20118;-76
2022/01/03 01:44:33;;;;;;;8.00;4.07;;;;;;;9.05;70.10;98621.59;4500584;31;20137;-75
2022/01/03 01:47:06;;;;;;;8.55;3.62;;;;;;;9.21;69.42;98621.13;4500887;31;20167;-75
2022/01/03 01:49:41;;;;;;;7.53;3.90;;;;;;;9.28;68.88;98611.81;4500203;31;20104;-75
2022/01/03 01:52:15;;;;;;;9.00;4.57;;;;;;;9.23;69.47;98620.03;4499762;31;20126;-75
2022/01/03 01:54:57;;;;;;;7.03;4.30;;;;;;;9.12;70.31;98621.91;4500412;31;20154;-75
2022/01/03 01:57:40;;;;;;;8.38;4.12;;;;;;;8.98;71.08;98621.31;4499629;31;20099;-75
2022/01/03 02:00:10;;;;;;;8.18;4.90;;;;;;;8.86;71.39;98627.56;4497801;31;20111;-75
2022/01/03 02:03:00;;;;;;;8.70;4.72;;;;;;;8.69;71.78;98624.59;4484524;31;20123;-75
2022/01/03 02:05:48;;;;;;;9.20;4.95;;;;;;;8.66;71.91;98632.69;4484742;31;20168;-76
2022/01/03 02:08:27;;;;;;;10.13;6.35;;;;;;;8.41;73.28;98633.84;4483258;32;20147;-75
2022/01/03 02:11:03;;;;;;;17.67;8.48;;;;;;;8.03;75.24;98642.22;4484583;31;20092;-75
2022/01/03 02:13:30;;;;;;;16.45;8.68;;;;;;;7.38;77.78;98642.13;4484738;31;20203;-76
2022/01/03 02:16:03;;;;;;;14.20;8.35;;;;;;;6.90;80.17;98646.63;4483439;32;20163;-75
2022/01/03 02:18:31;;;;;;;16.85;8.48;;;;;;;6.56;81.72;98633.53;4484713;31;20118;-75
2022/01/03 02:21:01;;;;;;;15.13;7.87;;;;;;;6.32;82.46;98635.38;4484133;31;20096;-75
2022/01/03 02:23:28;;;;;;;11.80;7.40;;;;;;;6.08;83.82;98630.19;4484406;31;20161;-75
2022/01/03 02:25:56;;;;;;;11.82;7.47;;;;;;;6.01;84.36;98628.03;4484462;31;20100;-75
2022/01/03 02:28:23;;;;;;;13.68;7.28;;;;;;;5.99;84.42;98616.09;4484274;31;20119;-75
2022/01/03 02:30:52;;;;;;;12.88;6.60;;;;;;;5.91;85.13;98621.00;4484162;31;20127;-75
2022/01/03 02:33:19;;;;;;;10.70;5.62;;;;;;;6.13;84.12;98618.53;4484267;31;20119;-75
2022/01/03 02:35:47;;;;;;;8.82;5.35;;;;;;;6.43;82.91;98618.97;4484224;31;20100;-75
2022/01/03 02:38:15;;;;;;;10.52;4.87;;;;;;;6.68;81.77;98608.34;4484125;31;20096;-75
2022/01/03 02:40:43;;;;;;;7.12;4.18;;;;;;;6.96;80.63;98606.25;4483717;31;20108;-75
2022/01/03 02:43:11;;;;;;;9.27;4.00;;;;;;;7.40;77.97;98606.34;4484322;31;20179;-75
2022/01/03 02:45:38;;;;;;;7.07;3.90;;;;;;;7.77;76.04;98582.56;4483900;32;20148;-75
2022/01/03 02:48:11;;;;;;;8.35;3.90;;;;;;;8.13;73.96;98585.72;4484203;31;20144;-75
2022/01/03 02:50:39;;;;;;;8.20;4.20;;;;;;;8.04;75.62;98610.78;4483775;31;20084;-75
2022/01/03 02:53:07;;;;;;;6.75;3.87;;;;;;;8.00;75.48;98604.97;4484660;31;20477;-75
2022/01/03 02:55:34;;;;;;;8.27;3.97;;;;;;;8.05;75.24;98596.78;4486090;31;20117;-75
2022/01/03 02:58:08;;;;;;;8.68;4.05;;;;;;;8.04;75.18;98596.91;4486154;31;20532;-75
2022/01/03 03:00:45;;;;;;;8.27;4.43;;;;;;;8.05;74.56;98598.56;4491664;31;21085;-75
2022/01/03 03:03:14;;;;;;;6.82;4.15;;;;;;;8.14;74.35;98593.41;4502123;31;20079;-75
2022/01/03 03:05:42;;;;;;;9.40;4.50;;;;;;;8.26;74.25;98620.28;4501790;31;20099;-75
2022/01/03 03:08:11;;;;;;;7.93;3.87;;;;;;;8.48;72.49;98603.72;4502052;31;20509;-75
2022/01/03 03:10:38;;;;;;;8.05;4.10;;;;;;;8.64;71.75;98599.81;4501461;31;20153;-75
2022/01/03 03:13:05;;;;;;;13.57;4.37;;;;;;;8.65;71.30;98599.69;4501695;31;20129;-75
2022/01/03 03:15:34;;;;;;;9.98;4.22;;;;;;;8.83;70.44;98586.03;4501748;31;20092;-75
2022/01/03 03:18:02;;;;;;;9.65;4.28;;;;;;;8.83;70.46;98592.09;4501888;31;20110;-75
2022/01/03 03:20:31;;;;;;;10.63;4.93;;;;;;;8.88;70.23;98599.53;4501730;31;20096;-76
2022/01/03 03:22:59;;;;;;;10.23;5.28;;;;;;;8.80;71.34;98594.12;4500446;31;20137;-76
2022/01/03 03:25:30;;;;;;;12.43;6.32;;;;;;;8.48;73.26;98603.72;4501562;31;20489;-76
2022/01/03 03:28:00;;;;;;;10.50;5.57;;;;;;;8.27;74.24;98605.47;4501665;31;20422;-76
2022/01/03 03:30:37;;;;;;;10.07;5.85;;;;;;;7.88;75.76;98605.97;4501733;31;20092;-75
2022/01/03 03:33:13;;;;;;;13.20;7.10;;;;;;;7.57;77.24;98607.59;4501689;31;20110;-76
2022/01/03 03:35:42;;;;;;;13.88;6.55;;;;;;;7.15;79.12;98607.44;4501741;31;20110;-76
2022/01/03 03:38:11;;;;;;;13.10;7.03;;;;;;;6.98;80.04;98609.56;4501597;31;20155;-76
2022/01/03 03:40:38;;;;;;;12.27;6.50;;;;;;;6.90;80.46;98612.78;4501520;31;20425;-75
2022/01/03 03:43:06;;;;;;;13.82;7.20;;;;;;;6.71;81.36;98622.94;4501830;31;20148;-76
2022/01/03 03:45:34;;;;;;;13.57;7.22;;;;;;;6.61;82.03;98624.56;4501595;31;20088;-75
2022/01/03 03:48:03;;;;;;;12.45;7.10;;;;;;;6.47;82.87;98617.78;4501670;31;20107;-75
2022/01/03 03:50:30;;;;;;;10.50;6.57;;;;;;;6.29;84.27;98625.19;4501215;31;20104;-75
2022/01/03 03:52:58;;;;;;;11.32;6.57;;;;;;;6.52;83.93;98621.69;4501749;31;20156;-75
2022/01/03 03:55:26;;;;;;;11.52;6.93;;;;;;;6.63;83.48;98618.31;4501367;31;20179;-75
2022/01/03 03:57:53;;;;;;;11.10;6.95;;;;;;;6.64;83.48;98598.28;4501542;31;20092;-75
2022/01/03 04:00:22;;;;;;;13.15;6.68;;;;;;;6.61;83.78;98599.34;4497121;31;20177;-75
2022/01/03 04:02:50;;;;;;;13.38;7.15;;;;;;;6.72;83.35;98621.97;4485320;31;20770;-75
2022/01/03 04:05:17;;;;;;;13.23;6.70;;;;;;;6.59;83.84;98587.41;4484039;32;20167;-75
2022/01/03 04:07:45;;;;;;;12.23;6.60;;;;;;;6.54;83.84;98627.63;4485465;31;20132;-75
2022/01/03 04:10:15;;;;;;;13.95;7.90;;;;;;;6.41;84.69;98608.66;4485670;31;20154;-75
2022/01/03 04:12:46;;;;;;;13.43;6.68;;;;;;;6.32;85.52;98615.38;4485460;31;20109;-75
2022/01/03 04:15:13;;;;;;;12.95;7.20;;;;;;;6.37;85.51;98623.69;4485466;31;20398;-75
2022/01/03 04:17:41;;;;;;;14.10;7.87;;;;;;;6.44;85.28;98611.03;4485509;31;20165;-75
2022/01/03 04:20:09;;;;;;;15.15;6.90;;;;;;;6.56;84.84;98610.09;4485493;31;20105;-75
2022/01/03 04:22:36;;;;;;;13.48;6.60;;;;;;;6.45;85.35;98614.47;4484102;32;20495;-75
2022/01/03 04:25:04;;;;;;;13.52;6.97;;;;;;;6.64;84.89;98616.53;4485445;31;20092;-75
2022/01/03 04:27:31;;;;;;;12.07;6.80;;;;;;;6.81;83.87;98604.81;4485471;31;20430;-75
2022/01/03 04:29:59;;;;;;;12.35;6.37;;;;;;;6.96;83.02;98602.81;4485526;31;20453;-75
2022/01/03 04:32:27;;;;;;;12.18;6.97;;;;;;;6.81;83.24;98612.63;4485455;31;20099;-76
2022/01/03 04:34:54;;;;;;;13.60;6.47;;;;;;;6.79;83.54;98614.53;4485415;31;20118;-75
2022/01/03 04:37:21;;;;;;;12.70;6.93;;;;;;;7.04;82.37;98616.06;4485353;31;20122;-76
2022/01/03 04:39:49;;;;;;;16.92;6.70;;;;;;;7.10;81.65;98626.00;4485508;31;20100;-75
2022/01/03 04:42:17;;;;;;;15.80;5.57;;;;;;;7.20;81.35;98611.31;4485213;32;20150;-75
2022/01/03 04:44:44;;;;;;;13.55;6.18;;;;;;;7.22;81.04;98611.22;4485461;31;20148;-75
2022/01/03 04:47:13;;;;;;;11.55;5.80;;;;;;;7.33;80.43;98610.34;4485449;31;20104;-75
2022/01/03 04:49:47;;;;;;;10.82;6.15;;;;;;;7.50;79.34;98596.84;4485463;31;20381;-75
2022/01/03 04:52:15;;;;;;;11.30;6.05;;;;;;;7.57;79.08;98594.56;4485265;31;20112;-75
2022/01/03 04:54:42;;;;;;;11.43;5.57;;;;;;;7.68;78.52;98604.97;4485419;31;20087;-75
2022/01/03 04:57:10;;;;;;;12.50;6.28;;;;;;;7.70;78.66;98607.47;4485351;31;20115;-76
2022/01/03 04:59:38;;;;;;;12.88;6.15;;;;;;;7.54;79.46;98621.72;4483785;32;20474;-75
2022/01/03 05:02:05;;;;;;;12.95;5.80;;;;;;;7.36;80.10;98604.91;4500226;31;20116;-76
2022/01/03 05:04:33;;;;;;;11.40;5.37;;;;;;;7.27;80.54;98607.31;4501081;31;20207;-75
2022/01/03 05:07:01;;;;;;;11.63;5.62;;;;;;;7.38;80.14;98605.63;4499671;31;20104;-76
2022/01/03 05:09:29;;;;;;;11.43;5.37;;;;;;;7.45;79.77;98594.59;4487054;31;20147;-76
2022/01/03 05:11:56;;;;;;;10.13;5.47;;;;;;;7.42;80.06;98599.25;4484810;32;20911;-76
2022/01/03 05:14:23;;;;;;;9.00;5.15;;;;;;;7.40;80.23;98604.56;4485093;31;20080;-76
2022/01/03 05:16:52;;;;;;;11.50;5.47;;;;;;;7.39;80.40;98604.69;4483975;31;20091;-76
2022/01/03 05:19:20;;;;;;;9.50;5.35;;;;;;;7.32;80.78;98598.31;4483571;31;20108;-75
2022/01/03 05:21:48;;;;;;;12.90;5.90;;;;;;;7.23;81.14;98599.84;4481733;31;20148;-76
2022/01/03 05:24:19;;;;;;;9.95;5.47;;;;;;;7.20;81.31;98590.47;4485260;32;20092;-76
2022/01/03 05:26:48;;;;;;;9.60;5.18;;;;;;;7.17;81.61;98592.50;4485113;32;20108;-76
2022/01/03 05:29:15;;;;;;;10.73;5.70;;;;;;;7.17;81.58;98585.50;4484683;32;20453;-76
2022/01/03 05:31:47;;;;;;;9.25;5.57;;;;;;;7.17;81.62;98588.12;4485028;32;20779;-75
2022/01/03 05:34:15;;;;;;;9.35;5.65;;;;;;;7.09;82.61;98577.47;4484786;32;20495;-76
2022/01/03 05:36:42;;;;;;;13.13;6.85;;;;;;;6.99;82.91;98579.12;4484986;32;20156;-76
2022/01/03 05:39:10;;;;;;;18.35;7.05;;;;;;;7.07;82.50;98580.22;4484522;32;20161;-76
2022/01/03 05:41:37;;;;;;;11.38;5.93;;;;;;;7.16;81.79;98577.81;4484516;31;20148;-76
2022/01/03 05:44:05;;;;;;;12.05;5.68;;;;;;;7.26;81.18;98579.56;4484696;31;20083;-76
2022/01/03 05:46:33;;;;;;;9.95;5.68;;;;;;;7.28;81.35;98593.34;4485053;31;20530;-75
2022/01/03 05:49:02;;;;;;;10.20;5.57;;;;;;;7.34;80.80;98597.22;4484784;31;20123;-76
2022/01/03 05:51:29;;;;;;;10.10;5.97;;;;;;;7.32;81.03;98587.88;4484658;31;20164;-76
2022/01/03 05:53:57;;;;;;;9.32;6.25;;;;;;;7.36;80.83;98594.47;4483874;31;20224;-76
2022/01/03 05:56:24;;;;;;;11.73;6.53;;;;;;;7.32;80.96;98588.69;4495329;31;20095;-76
2022/01/03 05:58:52;;;;;;;15.27;9.00;;;;;;;7.29;81.20;98596.75;4500329;31;20142;-75
2022/01/03 06:01:21;;;;;;;14.18;8.43;;;;;;;7.23;81.56;98605.87;4489654;31;20447;-76
2022/01/03 06:03:58;;;;;;;11.15;5.85;;;;;;;7.27;81.08;98596.88;4488103;31;20124;-76
2022/01/03 06:06:53;;;;;;;11.23;5.90;;;;;;;7.35;80.04;98590.25;4499720;31;20110;-76
2022/01/03 06:09:18;;;;;;;10.70;6.20;;;;;;;7.32;80.71;98573.06;4495875;31;20101;-76
2022/01/03 06:11:45;;;;;;;16.50;6.55;;;;;;;7.37;80.05;98572.69;4491133;31;20625;-75
2022/01/03 06:14:17;;;;;;;10.63;5.82;;;;;;;7.33;80.16;98569.50;4498766;31;20534;-76
2022/01/03 06:16:46;;;;;;;10.85;5.47;;;;;;;7.34;80.44;98567.72;4499951;31;20139;-76
2022/01/03 06:19:15;;;;;;;11.40;5.55;;;;;;;7.28;80.53;98575.09;4499263;31;20442;-76
2022/01/03 06:21:42;;;;;;;11.32;6.00;;;;;;;7.34;80.80;98578.16;4486475;31;20586;-76
2022/01/03 06:24:12;;;;;;;9.85;5.87;;;;;;;7.31;81.10;98576.59;4497617;31;20143;-76
2022/01/03 06:26:41;;;;;;;8.95;5.62;;;;;;;7.26;81.46;98597.81;4499807;31;20103;-75
2022/01/03 06:29:09;;;;;;;7.95;5.15;;;;;;;7.21;81.52;98592.16;4500918;31;20133;-76
2022/01/03 06:31:37;;;;;;;8.52;5.18;;;;;;;7.21;81.45;98592.16;4501165;31;20097;-75
2022/01/03 06:34:04;;;;;;;11.82;5.62;;;;;;;7.26;80.75;98607.41;4499394;31;20143;-74
2022/01/03 06:36:32;;;;;;;11.00;5.82;;;;;;;7.44;79.71;98603.34;4493255;31;20535;-75
2022/01/03 06:39:01;;;;;;;9.90;5.20;;;;;;;7.54;78.73;98606.09;4489046;31;20277;-77
2022/01/03 06:41:29;;;;;;;12.88;5.07;;;;;;;7.64;78.19;98583.56;4496547;31;20108;-76
2022/01/03 06:43:56;;;;;;;10.00;4.35;;;;;;;7.90;77.28;98582.38;4492426;31;20160;-76
2022/01/03 06:46:24;;;;;;;7.50;3.83;;;;;;;8.20;75.47;98573.81;4489049;31;20096;-74
2022/01/03 06:48:51;;;;;;;7.55;3.42;;;;;;;8.42;74.80;98572.03;4493892;31;20100;-74
2022/01/03 06:51:19;;;;;;;6.30;3.40;;;;;;;8.78;72.92;98568.16;4492304;31;20130;-73
2022/01/03 06:53:46;;;;;;;7.07;3.12;;;;;;;8.94;72.13;98572.06;4497655;31;20153;-73
2022/01/03 06:56:14;;;;;;;6.47;3.75;;;;;;;9.08;71.67;98560.41;4498180;31;20100;-73
2022/01/03 06:58:42;;;;;;;7.82;2.90;;;;;;;9.26;70.83;98555.38;4499656;31;20096;-74
2022/01/03 07:01:10;;;;;;;5.07;2.37;;;;;;;9.43;70.30;98551.28;4488344;31;21745;-73
2022/01/03 07:03:37;;;;;;;3.55;2.37;;;;;;;9.68;68.94;98550.75;4480449;31;20612;-74
2022/01/03 07:06:04;;;;;;;3.03;2.20;;;;;;;9.95;67.82;98563.16;4497784;31;20160;-75
2022/01/03 07:08:32;;;;;;;5.43;1.45;;;;;;;10.17;67.13;98552.53;4498555;31;20176;-74
2022/01/03 07:11:00;;;;;;;2.70;1.67;;;;;;;10.36;66.18;98534.22;4494966;31;20088;-74
2022/01/03 07:13:29;;;;;;;5.80;1.92;;;;;;;10.45;65.91;98569.22;4495596;31;20099;-74
2022/01/03 07:18:59;;;;;;;3.33;1.50;;;;;;;10.42;66.16;98565.06;4498066;31;20103;-75
2022/01/03 07:21:28;;;;;;;3.65;1.70;;;;;;;10.48;65.37;98554.03;4492686;31;20156;-74
2022/01/03 07:23:56;;;;;;;4.50;2.50;;;;;;;10.42;65.76;98567.69;4493877;31;20089;-74
2022/01/03 07:26:27;;;;;;;4.45;1.20;;;;;;;10.43;65.66;98553.63;4486630;31;20104;-73
2022/01/03 07:28:54;;;;;;;5.60;1.02;;;;;;;10.54;65.23;98557.88;4498215;31;20142;-73
2022/01/03 07:31:22;;;;;;;2.85;0.73;;;;;;;10.93;62.22;98559.53;4500222;31;20114;-72
2022/01/03 07:33:49;;;;;;;4.28;1.00;;;;;;;11.30;60.65;98527.19;4500712;31;20195;-72
2022/01/03 07:36:16;;;;;;;3.17;0.88;;;;;;;11.63;58.22;98533.59;4501371;31;20126;-72
2022/01/03 07:38:46;;;;;;;2.00;0.82;;;;;;;11.71;58.71;98530.22;4500596;31;20893;-72
2022/01/03 07:41:16;;;;;;;1.85;1.67;;;;;;;11.83;57.67;98518.50;4499734;31;20104;-72
2022/01/03 07:43:44;;;;;;;3.55;0.52;;;;;;;11.87;57.92;98509.38;4489800;31;20092;-72
2022/01/03 07:46:11;;;;;;;2.58;0.65;;;;;;;11.94;57.22;98527.97;4499927;31;20099;-72
2022/01/03 07:48:42;;;;;;;1.70;0.32;;;;;;;12.02;56.22;98509.69;4499933;31;20890;-72
2022/01/03 07:51:09;;;;;;;0.68;0.40;;;;;;;12.10;55.85;98529.06;4499366;31;20428;-72
2022/01/03 07:53:37;;;;;;;2.45;0.75;;;;;;;12.21;55.12;98544.59;4500757;31;20087;-72
2022/01/03 07:56:05;;;;;;;1.58;0.60;;;;;;;12.18;55.68;98548.34;4501267;31;20080;-71
2022/01/03 07:58:32;;;;;;;1.73;0.55;;;;;;;12.14;56.13;98593.44;4500690;31;20504;-72
2022/01/03 08:00:59;;;;;;;1.52;0.60;;;;;;;12.16;55.48;98552.94;4500515;31;20096;-73
2022/01/03 08:03:27;;;;;;;2.72;0.60;;;;;;;12.16;56.15;98560.81;4500310;31;20100;-75
2022/01/03 08:06:07;;;;;;;1.17;0.57;;;;;;;12.16;56.51;98550.31;4500086;31;20084;-74
2022/01/03 08:08:35;;;;;;;2.08;0.57;;;;;;;12.16;55.71;98573.13;4497932;31;20459;-73
2022/01/03 08:11:03;;;;;;;3.03;0.90;;;;;;;12.14;56.17;98575.91;4499153;31;20114;-71
2022/01/03 08:13:30;;;;;;;1.27;0.45;;;;;;;12.14;56.56;98583.78;4499937;31;20462;-72
2022/01/03 08:15:58;;;;;;;1.50;0.80;;;;;;;12.12;56.81;98577.03;4500317;31;20084;-72
2022/01/03 08:18:25;;;;;;;0.52;0.43;;;;;;;12.07;56.94;98601.13;4500882;31;20080;-72
2022/01/03 08:20:53;;;;;;;2.83;0.80;;;;;;;12.15;56.61;98590.66;4499935;31;20100;-74
2022/01/03 08:23:20;;;;;;;6.90;1.25;;;;;;;12.10;56.77;98595.56;4499249;31;20449;-72
2022/01/03 08:25:47;;;;;;;1.45;0.70;;;;;;;12.12;57.20;98598.03;4499578;31;20148;-73
2022/01/03 08:28:15;;;;;;;5.25;0.88;;;;;;;12.05;57.50;98587.31;4500604;31;20092;-73
2022/01/03 08:30:42;;;;;;;4.65;0.70;;;;;;;12.07;57.70;98598.50;4500571;31;20119;-73
2022/01/03 08:33:09;;;;;;;3.62;0.80;;;;;;;12.02;58.04;98591.06;4500482;31;20148;-73
2022/01/03 08:35:36;;;;;;;3.45;0.80;;;;;;;11.99;57.89;98598.41;4500428;31;20226;-74
2022/01/03 08:38:04;;;;;;;1.58;0.62;;;;;;;12.01;57.94;98601.72;4494879;31;20498;-74
2022/01/03 08:40:32;;;;;;;2.25;0.73;;;;;;;11.97;58.16;98608.25;4500347;31;20108;-74
2022/01/03 08:42:59;;;;;;;2.78;0.70;;;;;;;11.95;58.88;98604.94;4496201;31;20105;-74
2022/01/03 08:45:27;;;;;;;1.02;0.50;;;;;;;11.89;58.50;98594.03;4494413;31;20088;-74
2022/01/03 08:47:55;;;;;;;1.15;0.60;;;;;;;11.91;58.38;98620.13;4495131;31;20099;-74
2022/01/03 08:50:22;;;;;;;2.80;0.55;;;;;;;11.91;57.89;98622.75;4493415;31;20104;-71
2022/01/03 08:52:49;;;;;;;4.07;0.85;;;;;;;11.89;58.50;98620.28;4499751;31;20228;-72
2022/01/03 08:55:18;;;;;;;1.45;0.95;;;;;;;11.92;58.61;98621.78;4499835;31;20770;-73
2022/01/03 08:57:47;;;;;;;3.97;0.70;;;;;;;11.92;59.02;98623.59;4499102;31;20119;-75
2022/01/03 09:00:15;;;;;;;1.23;0.47;;;;;;;11.82;59.08;98640.22;4496664;31;20120;-72
2022/01/03 09:02:42;;;;;;;5.00;0.90;;;;;;;11.85;59.13;98637.31;4499640;31;20084;-73
2022/01/03 09:05:09;;;;;;;1.62;0.88;;;;;;;11.80;59.88;98629.03;4499593;31;20110;-73
2022/01/03 09:07:37;;;;;;;4.15;1.05;;;;;;;11.68;60.45;98632.84;4499676;31;20100;-74
2022/01/03 09:10:05;;;;;;;2.45;0.73;;;;;;;11.61;60.92;98643.13;4498605;31;20096;-71
2022/01/03 09:12:32;;;;;;;3.10;0.80;;;;;;;11.59;61.01;98642.44;4499827;31;20118;-72
2022/01/03 09:15:01;;;;;;;9.18;1.12;;;;;;;11.52;61.12;98636.97;4488759;31;20118;-75
2022/01/03 09:17:28;;;;;;;2.17;1.15;;;;;;;11.44;61.89;98642.09;4488233;31;20175;-75
2022/01/03 09:19:55;;;;;;;2.12;0.80;;;;;;;11.43;61.36;98647.47;4500286;31;20169;-75
2022/01/03 09:22:29;;;;;;;1.55;0.50;;;;;;;11.32;61.26;98635.38;4490840;31;20089;-75
2022/01/03 09:30:13;;;;;;;0.85;0.52;;;;;;;11.30;60.53;98637.34;4497967;31;20115;-76
2022/01/03 09:32:40;;;;;;;1.83;1.05;;;;;;;11.19;60.20;98640.97;4496474;31;20159;-76
2022/01/03 09:35:08;;;;;;;0.77;0.43;;;;;;;11.21;60.68;98632.97;4498278;31;20118;-76
2022/01/03 09:37:36;;;;;;;2.25;0.73;;;;;;;11.10;60.87;98616.44;4497887;31;20156;-76
2022/01/03 09:40:05;;;;;;;3.15;0.50;;;;;;;11.16;60.01;98605.38;4499453;31;20955;-75
2022/01/03 09:42:34;;;;;;;2.97;0.60;;;;;;;11.05;60.42;98600.31;4498922;31;20185;-78
2022/01/03 09:45:11;;;;;;;1.65;0.57;;;;;;;11.04;60.22;98596.06;4499497;31;20117;-75
2022/01/03 09:47:44;;;;;;;0.73;0.50;;;;;;;11.00;60.52;98605.16;4497998;31;20164;-75
2022/01/03 09:50:14;;;;;;;1.27;0.60;;;;;;;10.99;60.79;98598.25;4499480;31;20100;-76
2022/01/03 09:52:42;;;;;;;1.48;1.05;;;;;;;10.95;61.16;98602.16;4493266;31;20512;-75
2022/01/03 09:55:11;;;;;;;1.92;1.00;;;;;;;10.87;61.65;98605.50;4490960;31;20121;-75
2022/01/03 09:57:39;;;;;;;2.92;0.85;;;;;;;10.87;61.59;98615.97;4488498;31;20603;-75
2022/01/03 10:00:07;;;;;;;2.55;0.73;;;;;;;10.81;62.09;98622.63;4492939;31;20153;-77
2022/01/03 10:02:35;;;;;;;2.37;0.65;;;;;;;10.72;62.07;98610.38;4488226;31;20950;-74
2022/01/03 10:05:04;;;;;;;3.72;1.08;;;;;;;10.74;62.30;98599.75;4491505;31;20144;-74
2022/01/03 10:07:33;;;;;;;4.45;0.80;;;;;;;10.64;62.83;98594.50;4491425;31;20964;-75
2022/01/03 10:10:01;;;;;;;4.95;0.75;;;;;;;10.67;62.98;98598.66;4495594;31;20171;-74
2022/01/03 10:12:28;;;;;;;2.00;0.80;;;;;;;10.68;63.20;98598.50;4496023;31;20497;-75
2022/01/03 10:14:57;;;;;;;1.77;0.77;;;;;;;10.68;62.82;98589.84;4492612;31;20118;-75
2022/01/03 10:17:24;;;;;;;3.00;0.85;;;;;;;10.64;62.89;98594.50;4491307;31;20173;-74
2022/01/03 10:19:57;;;;;;;1.15;0.60;;;;;;;10.62;63.31;98584.19;4481978;31;20144;-75
2022/01/03 10:22:26;;;;;;;1.30;0.52;;;;;;;10.58;63.78;98595.94;4490816;31;20107;-75
2022/01/03 10:24:54;;;;;;;4.15;0.90;;;;;;;10.54;64.04;98572.78;4493311;31;20091;-74
2022/01/03 10:27:24;;;;;;;4.53;0.88;;;;;;;10.54;64.35;98557.88;4487275;31;20088;-76
2022/01/03 10:29:57;;;;;;;3.80;0.90;;;;;;;10.50;64.58;98539.97;4495226;31;20157;-76
2022/01/03 10:32:27;;;;;;;1.83;0.73;;;;;;;10.56;64.83;98531.53;4497381;31;20144;-75
2022/01/03 10:34:57;;;;;;;2.65;1.00;;;;;;;10.59;64.93;98542.53;4498428;31;20092;-77
2022/01/03 10:37:36;;;;;;;3.35;0.80;;;;;;;10.55;65.20;98543.81;4495543;31;20123;-76
2022/01/03 10:40:28;;;;;;;2.17;0.90;;;;;;;10.70;64.40;98556.44;4484877;31;20107;-75
2022/01/03 10:42:57;;;;;;;2.08;0.90;;;;;;;10.67;65.64;98557.56;4491577;31;20144;-74
2022/01/03 10:45:30;;;;;;;1.50;0.80;;;;;;;10.72;65.51;98555.34;4491456;31;20144;-73
2022/01/03 10:47:57;;;;;;;3.08;0.93;;;;;;;10.85;65.06;98557.62;4496175;31;20497;-73
2022/01/03 10:50:26;;;;;;;2.37;0.90;;;;;;;10.89;65.02;98566.03;4488295;31;20127;-73
2022/01/03 10:52:53;;;;;;;2.42;1.00;;;;;;;10.98;64.81;98557.31;4492101;31;20152;-74
2022/01/03 10:55:26;;;;;;;3.58;1.37;;;;;;;10.93;64.76;98570.00;4496541;31;20119;-73
2022/01/03 10:57:56;;;;;;;2.60;0.85;;;;;;;11.00;64.96;98565.84;4497829;31;20171;-72
2022/01/03 11:00:38;;;;;;;2.67;0.90;;;;;;;11.14;64.41;98572.41;4497292;31;20572;-73
2022/01/03 11:03:39;;;;;;;1.08;0.75;;;;;;;11.12;64.71;98564.69;4497909;31;20122;-74
2022/01/03 11:06:22;;;;;;;2.70;0.90;;;;;;;11.16;64.00;98557.38;4482903;31;20084;-73
2022/01/03 11:11:39;;;;;;;1.98;0.90;;;;;;;11.33;63.53;98532.16;4491853;31;20454;-73
2022/01/03 11:14:08;;;;;;;2.62;1.00;;;;;;;11.36;63.38;98552.84;4486426;31;20097;-74
2022/01/03 11:16:39;;;;;;;4.28;0.80;;;;;;;11.36;63.00;98544.97;4492482;31;20096;-75
2022/01/03 11:19:07;;;;;;;3.30;1.70;;;;;;;11.45;63.05;98551.94;4497840;31;20095;-74
2022/01/03 11:21:44;;;;;;;5.47;1.25;;;;;;;11.51;62.51;98540.84;4497111;31;20100;-74
2022/01/03 11:24:13;;;;;;;1.98;1.00;;;;;;;11.61;62.31;98550.44;4499569;31;20111;-75
2022/01/03 11:26:48;;;;;;;1.40;0.80;;;;;;;11.69;62.58;98548.75;4495449;31;20475;-73
2022/01/03 11:29:16;;;;;;;3.15;0.85;;;;;;;11.79;61.80;98563.59;4496786;31;20084;-73
2022/01/03 11:31:44;;;;;;;1.37;0.80;;;;;;;11.82;60.96;98556.22;4494222;31;20122;-74
2022/01/03 11:34:12;;;;;;;1.55;0.90;;;;;;;11.81;61.33;98551.97;4496746;31;20088;-74
2022/01/03 11:36:57;;;;;;;4.18;1.10;;;;;;;11.71;60.78;98544.16;4496602;31;20152;-73
2022/01/03 11:39:26;;;;;;;4.62;1.23;;;;;;;11.74;60.95;98539.59;4489809;31;20095;-73
2022/01/03 11:41:53;;;;;;;3.03;0.60;;;;;;;11.75;60.14;98542.06;4487036;31;20116;-74
2022/01/03 11:44:20;;;;;;;1.37;0.73;;;;;;;11.69;60.55;98545.28;4489608;31;20175;-73
2022/01/03 11:46:48;;;;;;;3.15;0.70;;;;;;;11.66;60.57;98540.34;4487801;31;20089;-74
2022/01/03 11:49:16;;;;;;;3.42;0.77;;;;;;;11.68;59.90;98551.50;4494137;31;20096;-73
2022/01/03 11:51:43;;;;;;;1.23;0.80;;;;;;;11.70;59.94;98552.19;4495684;31;20468;-74
2022/01/03 11:54:14;;;;;;;2.03;0.73;;;;;;;11.68;59.88;98552.31;4485774;31;20093;-73
2022/01/03 11:56:42;;;;;;;3.70;0.95;;;;;;;11.67;59.88;98550.69;4474908;32;20530;-73
2022/01/03 12:04:29;;;;;;;2.53;0.73;;;;;;;11.71;59.77;98564.34;4498001;31;20385;-73